Tropical Cyclones
[Index]
Main Index Home Page Stock Weather Photos Extreme Storms Discussion Storm News and Storm Chasing Reports Tropical Cyclones / Hurricanes / Typhoons Weather Data and Links Wild Fires / Bushfires Weather Observation Techniques Weather Picture Catalogue Tornado Pictures and Reports Stock Video Footage and DVDs for sale
Season 1983-1984 Tropical Cyclone ANNETTE-JAMINY Track Map
Season 1983-1984 Summaries: [BoM-AU] [JTWC-AU] [JTWC-SIO] [JTWC-SPAC] [JTWC-SH]
<<- Previous TC | JTWC 1983-1984 Season | Next TC ->>

click for intensity scale information  Lat/long Grid: Show Hide

 Date Labels: Show Hide

Joint Typhoon Warning Centre Cyclone Data

Name: ANNETTE-JAMINY

08 Feb 1984 12:00 UTC to 23 Feb 1984 12:00 UTC

    date/time    lat    long     hPa   cat  kts
1984-02-08 12   16.1    87.5            1     40          
1984-02-08 18   15.8    87.2            1     45          
1984-02-09 00   15.5    87.2            1     50          
1984-02-09 06   15.3    87.3            2     55          
1984-02-09 12   15.0    87.6            2     60          
1984-02-09 18   14.8    87.9            2     60          
1984-02-10 00   14.5    88.3            2     60          
1984-02-10 06   14.5    88.8            2     60          
1984-02-10 12   14.6    89.3            2     60          
1984-02-10 18   14.7    89.8            2     55          
1984-02-11 00   14.8    90.3            2     55          
1984-02-11 06   15.4    90.1            2     55          
1984-02-11 12   16.0    89.4            2     60          
1984-02-11 18   16.1    89.0            2     65          
1984-02-12 00   16.1    88.6            2     65          
1984-02-12 06   16.0    88.2            2     65          
1984-02-12 12   16.0    87.7            2     65          
1984-02-12 18   16.1    87.3            2     65          
1984-02-13 00   16.3    86.9            2     65          
1984-02-13 06   16.3    86.7            2     65          
1984-02-13 12   16.4    86.5            2     60          
1984-02-13 18   16.7    86.3            2     60          
1984-02-14 00   17.0    85.9            2     55          
1984-02-14 06   17.4    85.3            2     55          
1984-02-14 12   17.8    84.7            2     55          
1984-02-14 18   18.1    84.1            2     55          
1984-02-15 00   18.4    83.4            2     60          
1984-02-15 06   18.9    82.5            2     65          
1984-02-15 12   19.3    81.6            2     70          
1984-02-15 18   19.5    81.3            3     75          
1984-02-16 00   19.6    81.0            3     85          
1984-02-16 06   19.6    80.5            3     90          
1984-02-16 12   19.7    79.9            3     95          
1984-02-16 18   19.7    79.4            4    100          
1984-02-17 00   19.8    78.8            4    100          
1984-02-17 06   19.9    78.3            4    100          
1984-02-17 12   20.1    77.7            4    100          
1984-02-17 18   20.2    77.0            4    100          
1984-02-18 00   20.3    76.2            4    100          
1984-02-18 06   20.4    75.3            4    100          
1984-02-18 12   20.4    74.5            4    100          
1984-02-18 18   20.5    73.7            4    100          
1984-02-19 00   20.6    72.9            4    100          
1984-02-19 06   20.9    72.0            4    100          
1984-02-19 12   21.4    71.1            3     95          
1984-02-19 18   22.0    70.3            3     95          
1984-02-20 00   22.6    69.6            3     90          
1984-02-20 06   23.2    69.1            3     90          
1984-02-20 12   23.7    68.7            3     85          
1984-02-20 18   24.2    68.3            3     80          
1984-02-21 00   24.7    67.9            3     75          
1984-02-21 06   25.8    67.3            2     70          
1984-02-21 12   27.0    66.8            2     65          
1984-02-21 18   28.0    67.0            2     60          
1984-02-22 00   29.1    67.7            2     55          
1984-02-22 06   30.1    68.3            1     50          
1984-02-22 12   31.5    69.2            1     45          
1984-02-22 18   33.3    71.0            1     40          
1984-02-23 00   35.3    73.0                  35          
1984-02-23 06   37.2    74.4                  30          
1984-02-23 12   39.2    75.4                  25          
Winds are 1-min average.

Tropical cyclone tracks developed by Michael Bath using data from the Joint Typhoon Warning Centre Best Tracks and Google Maps.


[Australian Severe Weather index] [Copyright Notice] [Email Contacts] [Search This Site] [Privacy Policy]
Document: tropical_cyclone_annette-jaminy.htm Updated: 18 September 2016